Atlanta, Indiana
Current Conditions -  °F | °C
As of 3:35 PM on Friday 21 Nov 2014 (Local Time) from KTYQ Reporting Station
Clear Clear  
Wind Chill: 24°   Ceiling: Unl
Heat Index: 32°   Visibility: 10mi
Dew Point: 10°   Wind: 9mph
Humidity: 39%   Direction: 150°SSE
Pressure: 30.42"   Gusts: NA
Location:  40.22°N, 86.03°W
Report Text: KTYQ 212035Z AUTO 15008KT 10SM CLR 00/M12 A3042 RMK AO2 T00011123
Loading
Personal Weather Stations






























Interactive Weather Map New forecast layout! Learn more

10-Day Weather Forecast

Advertisements
Track Severe Weather on mobile